SVVA/VLN METAR and TAF weather

Enter ICAO airport designator
Station Type Date Time Source
SVVA METAR 2021/07/27 15:00 UTC NOAA

SVVA 271500Z /////KT 9999 SCT016 28/20 Q1017


Station Type Date Time Source
SVVA Decoded METAR 2021/07/27 15:00 UTC NOAA

Valencia, Venezuela (SVVA) 10-10N 067-56W 431M
Jul 27, 2021 - 11:00 AM EDT / 2021.07.27 1500 UTC
Visibility: greater than 7 mile(s):0
Sky conditions: partly cloudy
Temperature: 82 F (28 C)
Dew Point: 68 F (20 C)
Relative Humidity: 61%
Pressure (altimeter): 30.03 in. Hg (1017 hPa)
ob: SVVA 271500Z /////KT 9999 SCT016 28/20 Q1017
cycle: 15

Station Type Date Time Source
SVVA TAF 2021/07/27 18:42 UTC NOAA

TAF TAF SVVA 271600Z 2718/2818 20005KT 9999 SCT016 BKN070 TX33/2719Z TN23/2809Z
BECMG 2719/2722 VRB05KT 9000 VCDZ BKN016
FM272230 09005KT 9999 BKN020

Example: see airport list